sensor_id;sensor_type;location;lat;lon;timestamp;temperature;humidity
70421;SHT31;57848;51.938;15.520;2022-11-20T00:02:09;-0.61;85.13
70421;SHT31;57848;51.938;15.520;2022-11-20T00:04:34;-0.68;85.16
70421;SHT31;57848;51.938;15.520;2022-11-20T00:07:00;-0.65;85.55
70421;SHT31;57848;51.938;15.520;2022-11-20T00:09:25;-0.64;85.90
70421;SHT31;57848;51.938;15.520;2022-11-20T00:11:50;-0.66;85.94
70421;SHT31;57848;51.938;15.520;2022-11-20T00:14:16;-0.79;85.70
70421;SHT31;57848;51.938;15.520;2022-11-20T00:16:41;-0.65;85.93
70421;SHT31;57848;51.938;15.520;2022-11-20T00:19:07;-0.65;85.86
70421;SHT31;57848;51.938;15.520;2022-11-20T00:21:32;-0.65;85.82
70421;SHT31;57848;51.938;15.520;2022-11-20T00:23:58;-0.61;86.02
70421;SHT31;57848;51.938;15.520;2022-11-20T00:26:25;-0.61;86.09
70421;SHT31;57848;51.938;15.520;2022-11-20T00:28:53;-0.62;85.56
70421;SHT31;57848;51.938;15.520;2022-11-20T00:31:19;-0.64;86.05
70421;SHT31;57848;51.938;15.520;2022-11-20T00:33:45;-0.72;86.44
70421;SHT31;57848;51.938;15.520;2022-11-20T00:36:13;-0.69;86.70
70421;SHT31;57848;51.938;15.520;2022-11-20T00:38:39;-0.76;86.47
70421;SHT31;57848;51.938;15.520;2022-11-20T00:41:07;-0.72;86.66
70421;SHT31;57848;51.938;15.520;2022-11-20T00:43:33;-0.82;86.47
70421;SHT31;57848;51.938;15.520;2022-11-20T00:46:03;-0.85;86.64
70421;SHT31;57848;51.938;15.520;2022-11-20T00:48:29;-0.91;87.05
70421;SHT31;57848;51.938;15.520;2022-11-20T00:50:54;-0.91;87.24
70421;SHT31;57848;51.938;15.520;2022-11-20T00:53:20;-0.97;87.13
70421;SHT31;57848;51.938;15.520;2022-11-20T00:55:56;-1.00;87.41
70421;SHT31;57848;51.938;15.520;2022-11-20T00:58:23;-0.95;87.39
70421;SHT31;57848;51.938;15.520;2022-11-20T01:00:48;-0.97;87.23
70421;SHT31;57848;51.938;15.520;2022-11-20T01:03:16;-0.92;87.58
70421;SHT31;57848;51.938;15.520;2022-11-20T01:05:41;-0.96;87.42
70421;SHT31;57848;51.938;15.520;2022-11-20T01:08:07;-0.86;87.05
70421;SHT31;57848;51.938;15.520;2022-11-20T01:10:32;-0.96;87.60
70421;SHT31;57848;51.938;15.520;2022-11-20T01:12:58;-0.82;87.37
70421;SHT31;57848;51.938;15.520;2022-11-20T01:15:41;-0.88;86.99
70421;SHT31;57848;51.938;15.520;2022-11-20T01:18:07;-0.69;86.74
70421;SHT31;57848;51.938;15.520;2022-11-20T01:20:36;-0.74;86.44
70421;SHT31;57848;51.938;15.520;2022-11-20T01:23:03;-0.72;86.43
70421;SHT31;57848;51.938;15.520;2022-11-20T01:25:29;-0.60;86.61
70421;SHT31;57848;51.938;15.520;2022-11-20T01:27:54;-0.66;86.00
70421;SHT31;57848;51.938;15.520;2022-11-20T01:30:19;-0.62;86.17
70421;SHT31;57848;51.938;15.520;2022-11-20T01:32:45;-0.61;85.56
70421;SHT31;57848;51.938;15.520;2022-11-20T01:35:10;-0.61;85.51
70421;SHT31;57848;51.938;15.520;2022-11-20T01:37:35;-0.54;85.42
70421;SHT31;57848;51.938;15.520;2022-11-20T01:40:01;-0.51;84.64
70421;SHT31;57848;51.938;15.520;2022-11-20T01:42:27;-0.51;84.50
70421;SHT31;57848;51.938;15.520;2022-11-20T01:45:48;-0.45;84.58
70421;SHT31;57848;51.938;15.520;2022-11-20T01:48:17;-0.45;84.10
70421;SHT31;57848;51.938;15.520;2022-11-20T01:50:44;-0.44;84.24
70421;SHT31;57848;51.938;15.520;2022-11-20T01:53:13;-0.38;83.18
70421;SHT31;57848;51.938;15.520;2022-11-20T01:55:43;-0.40;82.83
70421;SHT31;57848;51.938;15.520;2022-11-20T01:58:11;-0.28;82.23
70421;SHT31;57848;51.938;15.520;2022-11-20T02:00:37;-0.27;82.20
70421;SHT31;57848;51.938;15.520;2022-11-20T02:03:08;-0.33;81.70
70421;SHT31;57848;51.938;15.520;2022-11-20T02:05:46;-0.35;81.88
70421;SHT31;57848;51.938;15.520;2022-11-20T02:08:15;-0.33;81.80
70421;SHT31;57848;51.938;15.520;2022-11-20T02:10:41;-0.31;81.49
70421;SHT31;57848;51.938;15.520;2022-11-20T02:13:06;-0.17;80.88
70421;SHT31;57848;51.938;15.520;2022-11-20T02:15:51;-0.20;80.17
70421;SHT31;57848;51.938;15.520;2022-11-20T02:18:18;-0.28;80.40
70421;SHT31;57848;51.938;15.520;2022-11-20T02:20:47;-0.23;80.53
70421;SHT31;57848;51.938;15.520;2022-11-20T02:26:28;-0.37;80.30
70421;SHT31;57848;51.938;15.520;2022-11-20T02:28:54;-0.37;80.96
70421;SHT31;57848;51.938;15.520;2022-11-20T02:31:20;-0.35;80.11
70421;SHT31;57848;51.938;15.520;2022-11-20T02:33:46;-0.42;79.78
70421;SHT31;57848;51.938;15.520;2022-11-20T02:36:14;-0.45;80.03
70421;SHT31;57848;51.938;15.520;2022-11-20T02:38:40;-0.47;80.17
70421;SHT31;57848;51.938;15.520;2022-11-20T02:41:06;-0.48;79.11
70421;SHT31;57848;51.938;15.520;2022-11-20T02:43:31;-0.62;79.81
70421;SHT31;57848;51.938;15.520;2022-11-20T02:45:57;-0.61;80.07
70421;SHT31;57848;51.938;15.520;2022-11-20T02:48:22;-0.69;79.69
70421;SHT31;57848;51.938;15.520;2022-11-20T02:50:48;-0.69;79.51
70421;SHT31;57848;51.938;15.520;2022-11-20T02:53:13;-0.75;79.90
70421;SHT31;57848;51.938;15.520;2022-11-20T02:55:39;-0.82;80.18
70421;SHT31;57848;51.938;15.520;2022-11-20T02:58:04;-0.81;79.92
70421;SHT31;57848;51.938;15.520;2022-11-20T03:00:29;-0.76;79.60
70421;SHT31;57848;51.938;15.520;2022-11-20T03:02:55;-0.85;79.70
70421;SHT31;57848;51.938;15.520;2022-11-20T03:05:21;-0.76;80.12
70421;SHT31;57848;51.938;15.520;2022-11-20T03:07:46;-0.82;80.29
70421;SHT31;57848;51.938;15.520;2022-11-20T03:10:12;-0.66;80.49
70421;SHT31;57848;51.938;15.520;2022-11-20T03:12:37;-0.82;79.87
70421;SHT31;57848;51.938;15.520;2022-11-20T03:15:03;-0.82;81.12
70421;SHT31;57848;51.938;15.520;2022-11-20T03:17:28;-0.85;79.99
70421;SHT31;57848;51.938;15.520;2022-11-20T03:19:54;-0.84;80.16
70421;SHT31;57848;51.938;15.520;2022-11-20T03:22:20;-0.86;81.06
70421;SHT31;57848;51.938;15.520;2022-11-20T03:24:45;-0.75;81.23
70421;SHT31;57848;51.938;15.520;2022-11-20T03:27:11;-0.74;80.55
70421;SHT31;57848;51.938;15.520;2022-11-20T03:29:36;-0.84;80.36
70421;SHT31;57848;51.938;15.520;2022-11-20T03:32:02;-0.72;79.66
70421;SHT31;57848;51.938;15.520;2022-11-20T03:34:27;-0.76;79.24
70421;SHT31;57848;51.938;15.520;2022-11-20T03:36:53;-0.85;79.94
70421;SHT31;57848;51.938;15.520;2022-11-20T03:39:18;-0.88;79.29
70421;SHT31;57848;51.938;15.520;2022-11-20T03:41:44;-0.88;79.77
70421;SHT31;57848;51.938;15.520;2022-11-20T03:44:11;-0.96;79.77
70421;SHT31;57848;51.938;15.520;2022-11-20T03:46:37;-0.88;79.21
70421;SHT31;57848;51.938;15.520;2022-11-20T03:49:03;-0.97;79.81
70421;SHT31;57848;51.938;15.520;2022-11-20T03:51:34;-0.95;79.01
70421;SHT31;57848;51.938;15.520;2022-11-20T03:54:02;-1.05;79.73
70421;SHT31;57848;51.938;15.520;2022-11-20T03:56:30;-1.09;79.75
70421;SHT31;57848;51.938;15.520;2022-11-20T03:58:56;-1.05;78.43
70421;SHT31;57848;51.938;15.520;2022-11-20T04:01:29;-1.05;79.66
70421;SHT31;57848;51.938;15.520;2022-11-20T04:03:56;-1.05;79.77
70421;SHT31;57848;51.938;15.520;2022-11-20T04:06:34;-0.99;79.20
70421;SHT31;57848;51.938;15.520;2022-11-20T04:09:00;-1.07;79.06
70421;SHT31;57848;51.938;15.520;2022-11-20T04:11:33;-1.17;79.77
70421;SHT31;57848;51.938;15.520;2022-11-20T04:14:01;-1.23;80.24
70421;SHT31;57848;51.938;15.520;2022-11-20T04:16:30;-1.21;80.20
70421;SHT31;57848;51.938;15.520;2022-11-20T04:18:57;-1.26;79.64
70421;SHT31;57848;51.938;15.520;2022-11-20T04:21:25;-1.32;79.77
70421;SHT31;57848;51.938;15.520;2022-11-20T04:23:51;-1.40;79.82
70421;SHT31;57848;51.938;15.520;2022-11-20T04:26:18;-1.47;80.41
70421;SHT31;57848;51.938;15.520;2022-11-20T04:28:44;-1.60;80.58
70421;SHT31;57848;51.938;15.520;2022-11-20T04:31:14;-1.65;80.81
70421;SHT31;57848;51.938;15.520;2022-11-20T04:33:40;-1.70;81.28
70421;SHT31;57848;51.938;15.520;2022-11-20T04:38:33;-1.82;81.35
70421;SHT31;57848;51.938;15.520;2022-11-20T04:41:00;-1.85;81.66
70421;SHT31;57848;51.938;15.520;2022-11-20T04:43:27;-1.96;81.96
70421;SHT31;57848;51.938;15.520;2022-11-20T04:45:53;-2.01;82.09
70421;SHT31;57848;51.938;15.520;2022-11-20T04:48:19;-1.98;82.00
70421;SHT31;57848;51.938;15.520;2022-11-20T04:50:45;-2.03;81.78
70421;SHT31;57848;51.938;15.520;2022-11-20T04:53:10;-2.03;81.74
70421;SHT31;57848;51.938;15.520;2022-11-20T04:55:35;-1.98;81.81
70421;SHT31;57848;51.938;15.520;2022-11-20T04:58:01;-1.99;81.93
70421;SHT31;57848;51.938;15.520;2022-11-20T05:00:26;-1.99;81.82
70421;SHT31;57848;51.938;15.520;2022-11-20T05:02:52;-2.02;81.91
70421;SHT31;57848;51.938;15.520;2022-11-20T05:05:18;-2.03;82.06
70421;SHT31;57848;51.938;15.520;2022-11-20T05:07:43;-2.01;81.95
70421;SHT31;57848;51.938;15.520;2022-11-20T05:10:09;-1.95;81.38
70421;SHT31;57848;51.938;15.520;2022-11-20T05:12:34;-1.96;81.80
70421;SHT31;57848;51.938;15.520;2022-11-20T05:14:59;-1.84;80.96
70421;SHT31;57848;51.938;15.520;2022-11-20T05:17:25;-1.95;80.84
70421;SHT31;57848;51.938;15.520;2022-11-20T05:19:50;-1.86;81.05
70421;SHT31;57848;51.938;15.520;2022-11-20T05:22:16;-1.85;80.33
70421;SHT31;57848;51.938;15.520;2022-11-20T05:24:41;-1.85;80.45
70421;SHT31;57848;51.938;15.520;2022-11-20T05:27:07;-1.85;80.09
70421;SHT31;57848;51.938;15.520;2022-11-20T05:29:32;-1.88;79.97
70421;SHT31;57848;51.938;15.520;2022-11-20T05:31:57;-1.79;79.76
70421;SHT31;57848;51.938;15.520;2022-11-20T05:34:23;-1.88;79.74
70421;SHT31;57848;51.938;15.520;2022-11-20T05:36:48;-1.91;79.72
70421;SHT31;57848;51.938;15.520;2022-11-20T05:39:14;-1.88;79.45
70421;SHT31;57848;51.938;15.520;2022-11-20T05:41:39;-1.85;79.72
70421;SHT31;57848;51.938;15.520;2022-11-20T05:44:04;-1.85;79.30
70421;SHT31;57848;51.938;15.520;2022-11-20T05:46:30;-1.79;79.17
70421;SHT31;57848;51.938;15.520;2022-11-20T05:48:56;-1.78;78.88
70421;SHT31;57848;51.938;15.520;2022-11-20T05:51:22;-1.78;79.09
70421;SHT31;57848;51.938;15.520;2022-11-20T05:53:48;-1.72;78.83
70421;SHT31;57848;51.938;15.520;2022-11-20T05:56:16;-1.75;78.77
70421;SHT31;57848;51.938;15.520;2022-11-20T05:58:42;-1.67;78.44
70421;SHT31;57848;51.938;15.520;2022-11-20T06:03:39;-1.71;78.35
70421;SHT31;57848;51.938;15.520;2022-11-20T06:06:05;-1.67;78.55
70421;SHT31;57848;51.938;15.520;2022-11-20T06:08:32;-1.65;78.41
70421;SHT31;57848;51.938;15.520;2022-11-20T06:10:58;-1.63;77.99
70421;SHT31;57848;51.938;15.520;2022-11-20T06:13:23;-1.63;78.26
70421;SHT31;57848;51.938;15.520;2022-11-20T06:15:50;-1.61;78.27
70421;SHT31;57848;51.938;15.520;2022-11-20T06:18:15;-1.58;78.74
70421;SHT31;57848;51.938;15.520;2022-11-20T06:20:41;-1.56;77.93
70421;SHT31;57848;51.938;15.520;2022-11-20T06:23:06;-1.51;77.83
70421;SHT31;57848;51.938;15.520;2022-11-20T06:25:32;-1.58;77.88
70421;SHT31;57848;51.938;15.520;2022-11-20T06:27:57;-1.50;77.84
70421;SHT31;57848;51.938;15.520;2022-11-20T06:30:22;-1.42;77.42
70421;SHT31;57848;51.938;15.520;2022-11-20T06:32:48;-1.47;77.33
70421;SHT31;57848;51.938;15.520;2022-11-20T06:35:13;-1.50;77.51
70421;SHT31;57848;51.938;15.520;2022-11-20T06:37:39;-1.47;77.77
70421;SHT31;57848;51.938;15.520;2022-11-20T06:40:05;-1.50;77.27
70421;SHT31;57848;51.938;15.520;2022-11-20T06:42:30;-1.47;77.54
70421;SHT31;57848;51.938;15.520;2022-11-20T06:44:56;-1.50;77.85
70421;SHT31;57848;51.938;15.520;2022-11-20T06:47:21;-1.48;77.57
70421;SHT31;57848;51.938;15.520;2022-11-20T06:49:46;-1.44;78.00
70421;SHT31;57848;51.938;15.520;2022-11-20T06:52:12;-1.47;77.95
70421;SHT31;57848;51.938;15.520;2022-11-20T06:54:37;-1.42;77.62
70421;SHT31;57848;51.938;15.520;2022-11-20T06:57:03;-1.42;77.27
70421;SHT31;57848;51.938;15.520;2022-11-20T06:59:28;-1.46;77.17
70421;SHT31;57848;51.938;15.520;2022-11-20T07:01:53;-1.39;77.78
70421;SHT31;57848;51.938;15.520;2022-11-20T07:04:19;-1.36;77.34
70421;SHT31;57848;51.938;15.520;2022-11-20T07:06:44;-1.40;77.00
70421;SHT31;57848;51.938;15.520;2022-11-20T07:09:09;-1.39;77.23
70421;SHT31;57848;51.938;15.520;2022-11-20T07:11:35;-1.40;77.22
70421;SHT31;57848;51.938;15.520;2022-11-20T07:14:00;-1.42;77.49
70421;SHT31;57848;51.938;15.520;2022-11-20T07:16:26;-1.37;77.35
70421;SHT31;57848;51.938;15.520;2022-11-20T07:18:51;-1.43;77.27
70421;SHT31;57848;51.938;15.520;2022-11-20T07:21:17;-1.39;77.96
70421;SHT31;57848;51.938;15.520;2022-11-20T07:23:42;-1.42;77.90
70421;SHT31;57848;51.938;15.520;2022-11-20T07:26:09;-1.40;77.19
70421;SHT31;57848;51.938;15.520;2022-11-20T07:28:36;-1.40;77.22
70421;SHT31;57848;51.938;15.520;2022-11-20T07:31:01;-1.39;77.53
70421;SHT31;57848;51.938;15.520;2022-11-20T07:33:27;-1.37;77.34
70421;SHT31;57848;51.938;15.520;2022-11-20T07:35:53;-1.32;77.11
70421;SHT31;57848;51.938;15.520;2022-11-20T07:38:18;-1.21;76.89
70421;SHT31;57848;51.938;15.520;2022-11-20T07:40:44;-1.30;76.64
70421;SHT31;57848;51.938;15.520;2022-11-20T07:43:09;-1.25;76.60
70421;SHT31;57848;51.938;15.520;2022-11-20T07:45:35;-1.20;76.77
70421;SHT31;57848;51.938;15.520;2022-11-20T07:48:00;-1.13;76.59
70421;SHT31;57848;51.938;15.520;2022-11-20T07:50:26;-1.19;76.42
70421;SHT31;57848;51.938;15.520;2022-11-20T07:52:51;-1.03;77.24
70421;SHT31;57848;51.938;15.520;2022-11-20T07:55:17;-0.99;75.86
70421;SHT31;57848;51.938;15.520;2022-11-20T07:57:43;-1.02;75.41
70421;SHT31;57848;51.938;15.520;2022-11-20T08:00:10;-0.92;75.78
70421;SHT31;57848;51.938;15.520;2022-11-20T08:02:40;-0.91;75.71
70421;SHT31;57848;51.938;15.520;2022-11-20T08:05:07;-0.92;75.23
70421;SHT31;57848;51.938;15.520;2022-11-20T08:07:40;-0.85;75.40
70421;SHT31;57848;51.938;15.520;2022-11-20T08:10:07;-0.78;74.85
70421;SHT31;57848;51.938;15.520;2022-11-20T08:12:33;-0.68;75.04
70421;SHT31;57848;51.938;15.520;2022-11-20T08:15:17;-0.66;75.51
70421;SHT31;57848;51.938;15.520;2022-11-20T08:17:42;-0.64;75.04
70421;SHT31;57848;51.938;15.520;2022-11-20T08:20:08;-0.51;74.55
70421;SHT31;57848;51.938;15.520;2022-11-20T08:22:33;-0.57;74.95
70421;SHT31;57848;51.938;15.520;2022-11-20T08:24:59;-0.42;74.47
70421;SHT31;57848;51.938;15.520;2022-11-20T08:27:24;-0.42;74.75
70421;SHT31;57848;51.938;15.520;2022-11-20T08:29:50;-0.41;74.08
70421;SHT31;57848;51.938;15.520;2022-11-20T08:32:15;-0.31;74.04
70421;SHT31;57848;51.938;15.520;2022-11-20T08:34:40;-0.34;73.68
70421;SHT31;57848;51.938;15.520;2022-11-20T08:37:06;-0.23;73.90
70421;SHT31;57848;51.938;15.520;2022-11-20T08:39:31;-0.31;73.98
70421;SHT31;57848;51.938;15.520;2022-11-20T08:41:57;-0.27;73.71
70421;SHT31;57848;51.938;15.520;2022-11-20T08:44:22;-0.27;73.62
70421;SHT31;57848;51.938;15.520;2022-11-20T08:46:47;-0.26;73.95
70421;SHT31;57848;51.938;15.520;2022-11-20T08:49:14;-0.21;74.26
70421;SHT31;57848;51.938;15.520;2022-11-20T08:51:39;-0.16;73.56
70421;SHT31;57848;51.938;15.520;2022-11-20T08:54:06;-0.20;73.94
70421;SHT31;57848;51.938;15.520;2022-11-20T08:56:31;-0.13;73.89
70421;SHT31;57848;51.938;15.520;2022-11-20T08:58:57;-0.11;73.73
70421;SHT31;57848;51.938;15.520;2022-11-20T09:01:24;0.00;73.86
70421;SHT31;57848;51.938;15.520;2022-11-20T09:03:49;0.08;73.11
70421;SHT31;57848;51.938;15.520;2022-11-20T09:06:15;0.10;73.40
70421;SHT31;57848;51.938;15.520;2022-11-20T09:08:41;0.03;73.01
70421;SHT31;57848;51.938;15.520;2022-11-20T09:11:07;0.01;73.21
70421;SHT31;57848;51.938;15.520;2022-11-20T09:13:34;0.15;72.92
70421;SHT31;57848;51.938;15.520;2022-11-20T09:16:04;0.08;73.88
70421;SHT31;57848;51.938;15.520;2022-11-20T09:18:31;0.08;72.86
70421;SHT31;57848;51.938;15.520;2022-11-20T09:20:58;0.05;72.83
70421;SHT31;57848;51.938;15.520;2022-11-20T09:23:24;0.17;73.08
70421;SHT31;57848;51.938;15.520;2022-11-20T09:25:50;0.28;73.34
70421;SHT31;57848;51.938;15.520;2022-11-20T09:28:15;0.22;72.31
70421;SHT31;57848;51.938;15.520;2022-11-20T09:30:43;0.35;72.22
70421;SHT31;57848;51.938;15.520;2022-11-20T09:33:09;0.32;73.02
70421;SHT31;57848;51.938;15.520;2022-11-20T09:35:34;0.26;72.30
70421;SHT31;57848;51.938;15.520;2022-11-20T09:38:05;0.25;71.74
70421;SHT31;57848;51.938;15.520;2022-11-20T09:40:30;0.25;71.91
70421;SHT31;57848;51.938;15.520;2022-11-20T09:43:01;0.26;72.46
70421;SHT31;57848;51.938;15.520;2022-11-20T09:45:54;0.24;71.81
70421;SHT31;57848;51.938;15.520;2022-11-20T09:48:36;0.26;72.20
70421;SHT31;57848;51.938;15.520;2022-11-20T09:54:09;0.11;71.67
70421;SHT31;57848;51.938;15.520;2022-11-20T09:56:39;0.19;71.90
70421;SHT31;57848;51.938;15.520;2022-11-20T09:59:07;0.31;71.61
70421;SHT31;57848;51.938;15.520;2022-11-20T10:01:37;0.34;72.00
70421;SHT31;57848;51.938;15.520;2022-11-20T10:04:13;0.44;71.74
70421;SHT31;57848;51.938;15.520;2022-11-20T10:06:44;0.49;71.22
70421;SHT31;57848;51.938;15.520;2022-11-20T10:19:57;0.56;72.23
70421;SHT31;57848;51.938;15.520;2022-11-20T10:23:02;0.65;71.22
70421;SHT31;57848;51.938;15.520;2022-11-20T10:25:50;0.66;71.66
70421;SHT31;57848;51.938;15.520;2022-11-20T10:30:57;0.73;70.95
70421;SHT31;57848;51.938;15.520;2022-11-20T10:33:26;0.69;70.96
70421;SHT31;57848;51.938;15.520;2022-11-20T10:35:57;0.76;70.65
70421;SHT31;57848;51.938;15.520;2022-11-20T10:38:33;0.86;71.42
70421;SHT31;57848;51.938;15.520;2022-11-20T10:41:02;0.85;70.95
70421;SHT31;57848;51.938;15.520;2022-11-20T10:43:48;0.90;70.85
70421;SHT31;57848;51.938;15.520;2022-11-20T10:46:21;1.08;69.70
70421;SHT31;57848;51.938;15.520;2022-11-20T10:48:50;1.12;70.10
70421;SHT31;57848;51.938;15.520;2022-11-20T11:01:44;1.27;69.83
70421;SHT31;57848;51.938;15.520;2022-11-20T11:04:40;1.33;69.64
70421;SHT31;57848;51.938;15.520;2022-11-20T11:07:21;1.38;69.86
70421;SHT31;57848;51.938;15.520;2022-11-20T11:09:50;1.35;69.55
70421;SHT31;57848;51.938;15.520;2022-11-20T11:12:16;1.44;69.21
70421;SHT31;57848;51.938;15.520;2022-11-20T11:14:43;1.37;70.00
70421;SHT31;57848;51.938;15.520;2022-11-20T11:17:22;1.45;69.72
70421;SHT31;57848;51.938;15.520;2022-11-20T11:20:24;1.64;69.53
70421;SHT31;57848;51.938;15.520;2022-11-20T11:22:55;1.75;69.19
70421;SHT31;57848;51.938;15.520;2022-11-20T11:25:33;1.78;69.17
70421;SHT31;57848;51.938;15.520;2022-11-20T11:28:01;1.87;68.44
70421;SHT31;57848;51.938;15.520;2022-11-20T11:30:28;1.96;66.94
70421;SHT31;57848;51.938;15.520;2022-11-20T11:33:25;2.01;66.56
70421;SHT31;57848;51.938;15.520;2022-11-20T11:35:59;1.99;66.53
70421;SHT31;57848;51.938;15.520;2022-11-20T11:38:32;2.06;65.85
70421;SHT31;57848;51.938;15.520;2022-11-20T11:40:59;2.06;65.24
70421;SHT31;57848;51.938;15.520;2022-11-20T11:43:31;2.05;65.09
70421;SHT31;57848;51.938;15.520;2022-11-20T11:46:32;1.93;65.73
70421;SHT31;57848;51.938;15.520;2022-11-20T11:49:00;2.01;65.10
70421;SHT31;57848;51.938;15.520;2022-11-20T11:51:29;1.86;65.12
70421;SHT31;57848;51.938;15.520;2022-11-20T11:53:58;1.98;64.95
70421;SHT31;57848;51.938;15.520;2022-11-20T11:56:26;1.89;64.88
70421;SHT31;57848;51.938;15.520;2022-11-20T11:58:57;1.83;64.61
70421;SHT31;57848;51.938;15.520;2022-11-20T12:06:27;1.85;65.28
70421;SHT31;57848;51.938;15.520;2022-11-20T12:08:59;1.91;65.29
70421;SHT31;57848;51.938;15.520;2022-11-20T12:11:53;1.85;65.29
70421;SHT31;57848;51.938;15.520;2022-11-20T12:14:37;1.85;65.12
70421;SHT31;57848;51.938;15.520;2022-11-20T12:17:03;1.92;65.02
70421;SHT31;57848;51.938;15.520;2022-11-20T12:19:34;1.89;65.79
70421;SHT31;57848;51.938;15.520;2022-11-20T12:22:59;1.86;65.28
70421;SHT31;57848;51.938;15.520;2022-11-20T12:25:06;1.92;65.17
70421;SHT31;57848;51.938;15.520;2022-11-20T12:27:44;1.87;64.84
70421;SHT31;57848;51.938;15.520;2022-11-20T12:56:27;1.83;66.19
70421;SHT31;57848;51.938;15.520;2022-11-20T12:59:23;1.86;66.93
70421;SHT31;57848;51.938;15.520;2022-11-20T13:07:27;1.98;66.00
70421;SHT31;57848;51.938;15.520;2022-11-20T13:09:53;1.95;66.87
70421;SHT31;57848;51.938;15.520;2022-11-20T13:12:33;1.93;67.52
70421;SHT31;57848;51.938;15.520;2022-11-20T13:18:08;2.06;67.54
70421;SHT31;57848;51.938;15.520;2022-11-20T13:20:35;2.15;66.13
70421;SHT31;57848;51.938;15.520;2022-11-20T13:23:01;2.13;66.12
70421;SHT31;57848;51.938;15.520;2022-11-20T13:25:31;2.15;66.23
70421;SHT31;57848;51.938;15.520;2022-11-20T13:28:00;2.15;66.41
70421;SHT31;57848;51.938;15.520;2022-11-20T13:30:27;2.06;66.31
70421;SHT31;57848;51.938;15.520;2022-11-20T13:32:57;2.17;66.35
70421;SHT31;57848;51.938;15.520;2022-11-20T13:35:36;2.23;65.79
70421;SHT31;57848;51.938;15.520;2022-11-20T13:38:09;2.17;65.91
70421;SHT31;57848;51.938;15.520;2022-11-20T13:40:59;2.15;66.44
70421;SHT31;57848;51.938;15.520;2022-11-20T13:43:47;2.24;66.01
70421;SHT31;57848;51.938;15.520;2022-11-20T13:46:12;2.27;66.47
70421;SHT31;57848;51.938;15.520;2022-11-20T13:48:40;2.33;66.01
70421;SHT31;57848;51.938;15.520;2022-11-20T13:59:33;2.22;66.36
70421;SHT31;57848;51.938;15.520;2022-11-20T14:02:01;2.22;66.34
70421;SHT31;57848;51.938;15.520;2022-11-20T14:04:36;2.05;66.68
70421;SHT31;57848;51.938;15.520;2022-11-20T14:07:05;2.12;67.32
70421;SHT31;57848;51.938;15.520;2022-11-20T14:09:32;2.10;66.75
70421;SHT31;57848;51.938;15.520;2022-11-20T14:11:58;2.07;67.25
70421;SHT31;57848;51.938;15.520;2022-11-20T14:14:26;2.05;67.51
70421;SHT31;57848;51.938;15.520;2022-11-20T14:17:04;2.03;67.40
70421;SHT31;57848;51.938;15.520;2022-11-20T14:19:30;1.98;67.27
70421;SHT31;57848;51.938;15.520;2022-11-20T14:24:48;1.89;67.85
70421;SHT31;57848;51.938;15.520;2022-11-20T14:27:21;1.92;68.28
70421;SHT31;57848;51.938;15.520;2022-11-20T14:30:35;1.93;67.99
70421;SHT31;57848;51.938;15.520;2022-11-20T14:33:11;1.86;68.51
70421;SHT31;57848;51.938;15.520;2022-11-20T14:35:55;1.87;68.58
70421;SHT31;57848;51.938;15.520;2022-11-20T14:38:26;1.82;68.15
70421;SHT31;57848;51.938;15.520;2022-11-20T14:41:14;1.81;68.73
70421;SHT31;57848;51.938;15.520;2022-11-20T14:43:59;1.78;68.64
70421;SHT31;57848;51.938;15.520;2022-11-20T14:46:30;1.76;68.87
70421;SHT31;57848;51.938;15.520;2022-11-20T14:49:04;1.69;68.91
70421;SHT31;57848;51.938;15.520;2022-11-20T14:54:46;1.64;69.97
70421;SHT31;57848;51.938;15.520;2022-11-20T15:00:04;1.55;69.13
70421;SHT31;57848;51.938;15.520;2022-11-20T15:02:30;1.43;69.79
70421;SHT31;57848;51.938;15.520;2022-11-20T15:05:00;1.24;70.67
70421;SHT31;57848;51.938;15.520;2022-11-20T15:07:49;1.17;71.42
70421;SHT31;57848;51.938;15.520;2022-11-20T15:10:26;1.12;70.91
70421;SHT31;57848;51.938;15.520;2022-11-20T15:12:53;0.94;71.75
70421;SHT31;57848;51.938;15.520;2022-11-20T15:15:29;0.83;72.01
70421;SHT31;57848;51.938;15.520;2022-11-20T15:17:56;0.85;71.59
70421;SHT31;57848;51.938;15.520;2022-11-20T15:20:25;0.79;71.40
70421;SHT31;57848;51.938;15.520;2022-11-20T15:22:51;0.72;72.16
70421;SHT31;57848;51.938;15.520;2022-11-20T15:25:17;0.69;72.21
70421;SHT31;57848;51.938;15.520;2022-11-20T15:27:43;0.68;71.85
70421;SHT31;57848;51.938;15.520;2022-11-20T15:30:15;0.70;71.55
70421;SHT31;57848;51.938;15.520;2022-11-20T15:32:42;0.70;71.29
70421;SHT31;57848;51.938;15.520;2022-11-20T15:35:08;0.70;71.77
70421;SHT31;57848;51.938;15.520;2022-11-20T15:37:34;0.66;71.66
70421;SHT31;57848;51.938;15.520;2022-11-20T15:39:59;0.59;71.82
70421;SHT31;57848;51.938;15.520;2022-11-20T15:42:24;0.65;72.48
70421;SHT31;57848;51.938;15.520;2022-11-20T15:44:50;0.68;72.03
70421;SHT31;57848;51.938;15.520;2022-11-20T15:47:15;0.76;71.60
70421;SHT31;57848;51.938;15.520;2022-11-20T15:49:43;0.70;71.06
70421;SHT31;57848;51.938;15.520;2022-11-20T15:52:09;0.64;71.23
70421;SHT31;57848;51.938;15.520;2022-11-20T15:54:35;0.66;71.41
70421;SHT31;57848;51.938;15.520;2022-11-20T15:57:00;0.73;71.24
70421;SHT31;57848;51.938;15.520;2022-11-20T15:59:27;0.68;71.89
70421;SHT31;57848;51.938;15.520;2022-11-20T16:01:52;0.54;71.97
70421;SHT31;57848;51.938;15.520;2022-11-20T16:04:18;0.59;71.73
70421;SHT31;57848;51.938;15.520;2022-11-20T16:06:43;0.58;71.99
70421;SHT31;57848;51.938;15.520;2022-11-20T16:09:09;0.66;72.82
70421;SHT31;57848;51.938;15.520;2022-11-20T16:11:35;0.68;72.22
70421;SHT31;57848;51.938;15.520;2022-11-20T16:14:02;0.65;72.36
70421;SHT31;57848;51.938;15.520;2022-11-20T16:16:47;0.54;71.73
70421;SHT31;57848;51.938;15.520;2022-11-20T16:19:13;0.59;72.81
70421;SHT31;57848;51.938;15.520;2022-11-20T16:21:39;0.69;72.19
70421;SHT31;57848;51.938;15.520;2022-11-20T16:24:09;0.64;72.14
70421;SHT31;57848;51.938;15.520;2022-11-20T16:26:36;0.69;72.43
70421;SHT31;57848;51.938;15.520;2022-11-20T16:29:05;0.64;71.84
70421;SHT31;57848;51.938;15.520;2022-11-20T16:31:31;0.69;71.82
70421;SHT31;57848;51.938;15.520;2022-11-20T16:33:59;0.68;71.94
70421;SHT31;57848;51.938;15.520;2022-11-20T16:36:26;0.61;72.27
70421;SHT31;57848;51.938;15.520;2022-11-20T16:38:57;0.56;72.10
70421;SHT31;57848;51.938;15.520;2022-11-20T16:41:25;0.59;72.08
70421;SHT31;57848;51.938;15.520;2022-11-20T16:43:58;0.56;72.65
70421;SHT31;57848;51.938;15.520;2022-11-20T16:46:26;0.49;72.45
70421;SHT31;57848;51.938;15.520;2022-11-20T16:48:54;0.44;72.83
70421;SHT31;57848;51.938;15.520;2022-11-20T16:51:20;0.40;73.35
70421;SHT31;57848;51.938;15.520;2022-11-20T16:53:46;0.41;73.58
70421;SHT31;57848;51.938;15.520;2022-11-20T16:56:13;0.31;73.85
70421;SHT31;57848;51.938;15.520;2022-11-20T16:58:42;0.25;73.61
70421;SHT31;57848;51.938;15.520;2022-11-20T17:01:09;0.17;73.95
70421;SHT31;57848;51.938;15.520;2022-11-20T17:03:39;0.19;73.92
70421;SHT31;57848;51.938;15.520;2022-11-20T17:06:19;0.14;73.69